sensor_id;sensor_type;location;lat;lon;timestamp;P1;durP1;ratioP1;P2;durP2;ratioP2
22425;SDS011;11380;50.822;15.790;2023-02-04T00:01:47;45.00;;;41.93;;
22425;SDS011;11380;50.822;15.790;2023-02-04T00:06:54;45.53;;;42.37;;
22425;SDS011;11380;50.822;15.790;2023-02-04T00:12:03;45.13;;;42.03;;
22425;SDS011;11380;50.822;15.790;2023-02-04T00:17:11;45.00;;;41.97;;
22425;SDS011;11380;50.822;15.790;2023-02-04T00:22:18;44.30;;;41.30;;
22425;SDS011;11380;50.822;15.790;2023-02-04T00:27:25;45.20;;;41.90;;
22425;SDS011;11380;50.822;15.790;2023-02-04T00:32:32;44.13;;;41.20;;
22425;SDS011;11380;50.822;15.790;2023-02-04T00:37:39;44.20;;;41.30;;
22425;SDS011;11380;50.822;15.790;2023-02-04T00:42:46;44.43;;;41.43;;
22425;SDS011;11380;50.822;15.790;2023-02-04T00:52:59;43.57;;;40.77;;
22425;SDS011;11380;50.822;15.790;2023-02-04T00:58:08;44.23;;;41.33;;
22425;SDS011;11380;50.822;15.790;2023-02-04T01:03:18;44.17;;;41.27;;
22425;SDS011;11380;50.822;15.790;2023-02-04T01:08:25;44.27;;;41.37;;
22425;SDS011;11380;50.822;15.790;2023-02-04T01:13:32;44.13;;;41.23;;
22425;SDS011;11380;50.822;15.790;2023-02-04T01:18:40;44.03;;;41.13;;
22425;SDS011;11380;50.822;15.790;2023-02-04T01:23:47;43.63;;;40.83;;
22425;SDS011;11380;50.822;15.790;2023-02-04T01:28:55;43.70;;;40.87;;
22425;SDS011;11380;50.822;15.790;2023-02-04T01:34:02;43.93;;;41.07;;
22425;SDS011;11380;50.822;15.790;2023-02-04T01:39:12;43.73;;;40.93;;
22425;SDS011;11380;50.822;15.790;2023-02-04T01:44:19;43.68;;;40.78;;
22425;SDS011;11380;50.822;15.790;2023-02-04T01:49:26;43.42;;;40.63;;
22425;SDS011;11380;50.822;15.790;2023-02-04T01:54:33;43.08;;;40.35;;
22425;SDS011;11380;50.822;15.790;2023-02-04T01:59:46;43.73;;;40.93;;
22425;SDS011;11380;50.822;15.790;2023-02-04T02:04:53;43.80;;;40.97;;
22425;SDS011;11380;50.822;15.790;2023-02-04T02:10:00;43.87;;;41.00;;
22425;SDS011;11380;50.822;15.790;2023-02-04T02:15:11;44.10;;;41.20;;
22425;SDS011;11380;50.822;15.790;2023-02-04T02:20:20;43.60;;;40.70;;
22425;SDS011;11380;50.822;15.790;2023-02-04T02:25:30;43.55;;;40.73;;
22425;SDS011;11380;50.822;15.790;2023-02-04T02:30:37;44.40;;;41.47;;
22425;SDS011;11380;50.822;15.790;2023-02-04T02:35:45;43.93;;;41.13;;
22425;SDS011;11380;50.822;15.790;2023-02-04T02:40:54;43.03;;;40.33;;
22425;SDS011;11380;50.822;15.790;2023-02-04T02:46:02;43.67;;;40.57;;
22425;SDS011;11380;50.822;15.790;2023-02-04T02:51:09;44.30;;;41.40;;
22425;SDS011;11380;50.822;15.790;2023-02-04T02:56:17;44.00;;;41.02;;
22425;SDS011;11380;50.822;15.790;2023-02-04T03:01:24;42.35;;;39.65;;
22425;SDS011;11380;50.822;15.790;2023-02-04T03:06:33;43.67;;;40.83;;
22425;SDS011;11380;50.822;15.790;2023-02-04T03:11:40;43.97;;;40.97;;
22425;SDS011;11380;50.822;15.790;2023-02-04T03:16:47;42.23;;;39.63;;
22425;SDS011;11380;50.822;15.790;2023-02-04T03:21:55;43.87;;;41.07;;
22425;SDS011;11380;50.822;15.790;2023-02-04T03:27:02;42.23;;;39.63;;
22425;SDS011;11380;50.822;15.790;2023-02-04T03:32:10;42.47;;;39.77;;
22425;SDS011;11380;50.822;15.790;2023-02-04T03:37:17;41.83;;;39.18;;
22425;SDS011;11380;50.822;15.790;2023-02-04T03:42:24;42.17;;;39.57;;
22425;SDS011;11380;50.822;15.790;2023-02-04T03:47:30;42.13;;;39.53;;
22425;SDS011;11380;50.822;15.790;2023-02-04T03:52:37;42.30;;;39.60;;
22425;SDS011;11380;50.822;15.790;2023-02-04T03:57:45;42.90;;;40.10;;
22425;SDS011;11380;50.822;15.790;2023-02-04T04:02:52;42.07;;;39.47;;
22425;SDS011;11380;50.822;15.790;2023-02-04T04:08:00;42.17;;;39.37;;
22425;SDS011;11380;50.822;15.790;2023-02-04T04:13:07;42.60;;;39.90;;
22425;SDS011;11380;50.822;15.790;2023-02-04T04:18:15;42.03;;;39.35;;
22425;SDS011;11380;50.822;15.790;2023-02-04T04:23:23;43.43;;;40.63;;
22425;SDS011;11380;50.822;15.790;2023-02-04T04:28:30;41.90;;;39.20;;
22425;SDS011;11380;50.822;15.790;2023-02-04T04:38:43;40.93;;;38.47;;
22425;SDS011;11380;50.822;15.790;2023-02-04T04:43:51;41.97;;;39.30;;
22425;SDS011;11380;50.822;15.790;2023-02-04T04:48:59;42.57;;;39.90;;
22425;SDS011;11380;50.822;15.790;2023-02-04T04:54:07;41.90;;;39.23;;
22425;SDS011;11380;50.822;15.790;2023-02-04T04:59:16;42.10;;;39.40;;
22425;SDS011;11380;50.822;15.790;2023-02-04T05:04:24;41.18;;;38.67;;
22425;SDS011;11380;50.822;15.790;2023-02-04T05:14:37;45.87;;;42.30;;
22425;SDS011;11380;50.822;15.790;2023-02-04T05:19:44;44.37;;;41.27;;
22425;SDS011;11380;50.822;15.790;2023-02-04T05:24:50;47.08;;;43.15;;
22425;SDS011;11380;50.822;15.790;2023-02-04T05:35:03;45.17;;;41.87;;
22425;SDS011;11380;50.822;15.790;2023-02-04T05:40:11;44.30;;;41.10;;
22425;SDS011;11380;50.822;15.790;2023-02-04T05:45:18;43.00;;;40.20;;
22425;SDS011;11380;50.822;15.790;2023-02-04T05:50:25;42.75;;;40.03;;
22425;SDS011;11380;50.822;15.790;2023-02-04T05:55:33;43.10;;;40.30;;
22425;SDS011;11380;50.822;15.790;2023-02-04T06:00:40;42.30;;;39.70;;
22425;SDS011;11380;50.822;15.790;2023-02-04T06:05:48;41.73;;;39.13;;
22425;SDS011;11380;50.822;15.790;2023-02-04T06:10:55;42.83;;;40.03;;
22425;SDS011;11380;50.822;15.790;2023-02-04T06:16:02;41.57;;;39.00;;
22425;SDS011;11380;50.822;15.790;2023-02-04T06:21:09;43.07;;;40.37;;
22425;SDS011;11380;50.822;15.790;2023-02-04T06:26:16;42.20;;;39.57;;
22425;SDS011;11380;50.822;15.790;2023-02-04T06:31:24;41.98;;;39.25;;
22425;SDS011;11380;50.822;15.790;2023-02-04T06:36:32;42.17;;;39.58;;
22425;SDS011;11380;50.822;15.790;2023-02-04T06:41:39;41.68;;;38.98;;
22425;SDS011;11380;50.822;15.790;2023-02-04T06:46:46;41.57;;;39.03;;
22425;SDS011;11380;50.822;15.790;2023-02-04T07:02:12;41.60;;;39.03;;
22425;SDS011;11380;50.822;15.790;2023-02-04T07:07:19;41.17;;;38.57;;
22425;SDS011;11380;50.822;15.790;2023-02-04T07:12:26;41.65;;;39.08;;
22425;SDS011;11380;50.822;15.790;2023-02-04T07:17:33;42.33;;;39.63;;
22425;SDS011;11380;50.822;15.790;2023-02-04T07:22:40;42.40;;;39.60;;
22425;SDS011;11380;50.822;15.790;2023-02-04T07:27:47;40.63;;;38.20;;
22425;SDS011;11380;50.822;15.790;2023-02-04T07:32:54;41.83;;;39.23;;
22425;SDS011;11380;50.822;15.790;2023-02-04T07:38:01;41.50;;;38.90;;
22425;SDS011;11380;50.822;15.790;2023-02-04T07:43:09;41.50;;;38.90;;
22425;SDS011;11380;50.822;15.790;2023-02-04T07:48:18;44.23;;;41.23;;
22425;SDS011;11380;50.822;15.790;2023-02-04T07:53:25;43.53;;;40.70;;
22425;SDS011;11380;50.822;15.790;2023-02-04T07:58:33;44.55;;;41.55;;
22425;SDS011;11380;50.822;15.790;2023-02-04T08:03:41;44.17;;;41.17;;
22425;SDS011;11380;50.822;15.790;2023-02-04T08:08:48;42.90;;;40.00;;
22425;SDS011;11380;50.822;15.790;2023-02-04T08:13:56;43.07;;;40.17;;
22425;SDS011;11380;50.822;15.790;2023-02-04T08:19:05;43.67;;;40.77;;
22425;SDS011;11380;50.822;15.790;2023-02-04T08:24:14;44.73;;;41.60;;
22425;SDS011;11380;50.822;15.790;2023-02-04T08:29:22;45.00;;;41.80;;
22425;SDS011;11380;50.822;15.790;2023-02-04T08:34:31;45.73;;;42.40;;
22425;SDS011;11380;50.822;15.790;2023-02-04T08:39:38;44.90;;;41.57;;
22425;SDS011;11380;50.822;15.790;2023-02-04T08:44:47;45.70;;;42.47;;
22425;SDS011;11380;50.822;15.790;2023-02-04T08:49:54;43.80;;;40.90;;
22425;SDS011;11380;50.822;15.790;2023-02-04T08:55:03;43.98;;;40.98;;
22425;SDS011;11380;50.822;15.790;2023-02-04T09:00:10;43.60;;;40.73;;
22425;SDS011;11380;50.822;15.790;2023-02-04T09:05:17;45.60;;;42.50;;
22425;SDS011;11380;50.822;15.790;2023-02-04T09:15:30;44.10;;;41.20;;
22425;SDS011;11380;50.822;15.790;2023-02-04T09:20:37;42.70;;;40.00;;
22425;SDS011;11380;50.822;15.790;2023-02-04T09:25:44;43.40;;;40.60;;
22425;SDS011;11380;50.822;15.790;2023-02-04T09:30:52;44.30;;;41.43;;
22425;SDS011;11380;50.822;15.790;2023-02-04T09:36:01;42.43;;;39.77;;
22425;SDS011;11380;50.822;15.790;2023-02-04T09:41:09;42.63;;;39.93;;
22425;SDS011;11380;50.822;15.790;2023-02-04T09:46:21;44.43;;;41.37;;
22425;SDS011;11380;50.822;15.790;2023-02-04T09:51:32;43.53;;;40.67;;
22425;SDS011;11380;50.822;15.790;2023-02-04T09:56:40;43.53;;;40.73;;
22425;SDS011;11380;50.822;15.790;2023-02-04T10:06:59;42.43;;;39.80;;
22425;SDS011;11380;50.822;15.790;2023-02-04T10:12:07;42.53;;;39.87;;
22425;SDS011;11380;50.822;15.790;2023-02-04T10:17:16;44.07;;;41.17;;
22425;SDS011;11380;50.822;15.790;2023-02-04T10:22:25;43.07;;;40.30;;
22425;SDS011;11380;50.822;15.790;2023-02-04T10:27:32;43.70;;;40.87;;
22425;SDS011;11380;50.822;15.790;2023-02-04T10:32:40;44.40;;;41.40;;
22425;SDS011;11380;50.822;15.790;2023-02-04T10:38:00;42.60;;;39.77;;
22425;SDS011;11380;50.822;15.790;2023-02-04T10:43:19;43.30;;;40.50;;
22425;SDS011;11380;50.822;15.790;2023-02-04T10:48:29;42.40;;;39.70;;
22425;SDS011;11380;50.822;15.790;2023-02-04T10:53:47;41.97;;;39.33;;
22425;SDS011;11380;50.822;15.790;2023-02-04T10:59:19;42.70;;;40.00;;
22425;SDS011;11380;50.822;15.790;2023-02-04T11:04:26;43.33;;;40.52;;
22425;SDS011;11380;50.822;15.790;2023-02-04T11:09:33;42.58;;;39.88;;
22425;SDS011;11380;50.822;15.790;2023-02-04T11:14:40;43.63;;;40.23;;
22425;SDS011;11380;50.822;15.790;2023-02-04T11:19:47;42.88;;;40.15;;
22425;SDS011;11380;50.822;15.790;2023-02-04T11:24:54;43.35;;;40.55;;
22425;SDS011;11380;50.822;15.790;2023-02-04T11:35:20;42.93;;;40.10;;
22425;SDS011;11380;50.822;15.790;2023-02-04T11:40:33;43.53;;;40.60;;
22425;SDS011;11380;50.822;15.790;2023-02-04T11:45:42;44.37;;;41.37;;
22425;SDS011;11380;50.822;15.790;2023-02-04T11:50:54;44.13;;;41.23;;
22425;SDS011;11380;50.822;15.790;2023-02-04T11:56:02;43.73;;;40.83;;
22425;SDS011;11380;50.822;15.790;2023-02-04T12:01:20;43.67;;;40.83;;
22425;SDS011;11380;50.822;15.790;2023-02-04T12:06:31;44.75;;;41.65;;
22425;SDS011;11380;50.822;15.790;2023-02-04T12:11:50;44.50;;;41.40;;
22425;SDS011;11380;50.822;15.790;2023-02-04T12:16:56;43.67;;;40.87;;
22425;SDS011;11380;50.822;15.790;2023-02-04T12:22:04;42.93;;;40.13;;
22425;SDS011;11380;50.822;15.790;2023-02-04T12:27:13;46.40;;;42.90;;
22425;SDS011;11380;50.822;15.790;2023-02-04T12:32:21;44.37;;;41.33;;
22425;SDS011;11380;50.822;15.790;2023-02-04T12:37:28;43.73;;;40.93;;
22425;SDS011;11380;50.822;15.790;2023-02-04T12:42:35;43.85;;;41.05;;
22425;SDS011;11380;50.822;15.790;2023-02-04T12:47:42;43.85;;;40.95;;
22425;SDS011;11380;50.822;15.790;2023-02-04T12:52:53;43.90;;;40.90;;
22425;SDS011;11380;50.822;15.790;2023-02-04T12:58:01;43.90;;;41.00;;
22425;SDS011;11380;50.822;15.790;2023-02-04T13:03:09;45.13;;;41.80;;
22425;SDS011;11380;50.822;15.790;2023-02-04T13:08:17;44.20;;;41.14;;
22425;SDS011;11380;50.822;15.790;2023-02-04T13:13:24;43.87;;;40.97;;
22425;SDS011;11380;50.822;15.790;2023-02-04T13:18:31;43.80;;;41.00;;
22425;SDS011;11380;50.822;15.790;2023-02-04T13:23:38;43.13;;;39.83;;
22425;SDS011;11380;50.822;15.790;2023-02-04T13:28:45;43.93;;;41.10;;
22425;SDS011;11380;50.822;15.790;2023-02-04T13:33:52;43.45;;;40.55;;
22425;SDS011;11380;50.822;15.790;2023-02-04T13:38:58;43.50;;;40.57;;
22425;SDS011;11380;50.822;15.790;2023-02-04T13:44:05;44.17;;;41.27;;
22425;SDS011;11380;50.822;15.790;2023-02-04T13:54:19;43.27;;;40.37;;
22425;SDS011;11380;50.822;15.790;2023-02-04T13:59:26;45.03;;;41.63;;
22425;SDS011;11380;50.822;15.790;2023-02-04T14:04:33;47.03;;;43.58;;
22425;SDS011;11380;50.822;15.790;2023-02-04T14:14:46;43.50;;;40.60;;
22425;SDS011;11380;50.822;15.790;2023-02-04T14:19:53;45.83;;;42.67;;
22425;SDS011;11380;50.822;15.790;2023-02-04T14:30:09;52.10;;;47.05;;
22425;SDS011;11380;50.822;15.790;2023-02-04T14:35:24;52.65;;;48.10;;
22425;SDS011;11380;50.822;15.790;2023-02-04T14:40:32;49.80;;;45.80;;
22425;SDS011;11380;50.822;15.790;2023-02-04T14:45:40;50.93;;;46.40;;
22425;SDS011;11380;50.822;15.790;2023-02-04T14:50:47;54.07;;;49.27;;
22425;SDS011;11380;50.822;15.790;2023-02-04T14:55:54;52.58;;;48.13;;
22425;SDS011;11380;50.822;15.790;2023-02-04T15:01:00;49.67;;;45.67;;
22425;SDS011;11380;50.822;15.790;2023-02-04T15:06:07;48.50;;;44.70;;
22425;SDS011;11380;50.822;15.790;2023-02-04T15:11:17;52.27;;;47.53;;
22425;SDS011;11380;50.822;15.790;2023-02-04T15:16:24;44.10;;;41.17;;
22425;SDS011;11380;50.822;15.790;2023-02-04T15:21:32;43.92;;;40.90;;
22425;SDS011;11380;50.822;15.790;2023-02-04T15:26:39;43.10;;;40.40;;
22425;SDS011;11380;50.822;15.790;2023-02-04T15:31:46;45.83;;;42.53;;
22425;SDS011;11380;50.822;15.790;2023-02-04T15:36:53;45.57;;;42.17;;
22425;SDS011;11380;50.822;15.790;2023-02-04T15:42:00;44.83;;;41.63;;
22425;SDS011;11380;50.822;15.790;2023-02-04T15:47:07;43.60;;;40.70;;
22425;SDS011;11380;50.822;15.790;2023-02-04T15:52:14;43.63;;;40.70;;
22425;SDS011;11380;50.822;15.790;2023-02-04T15:57:23;42.40;;;39.67;;
22425;SDS011;11380;50.822;15.790;2023-02-04T16:02:30;42.50;;;39.73;;
22425;SDS011;11380;50.822;15.790;2023-02-04T16:07:37;41.57;;;38.97;;
22425;SDS011;11380;50.822;15.790;2023-02-04T16:12:45;41.47;;;38.77;;
22425;SDS011;11380;50.822;15.790;2023-02-04T16:17:52;42.20;;;39.47;;
22425;SDS011;11380;50.822;15.790;2023-02-04T16:23:02;48.83;;;44.63;;
22425;SDS011;11380;50.822;15.790;2023-02-04T16:28:10;49.10;;;44.13;;
22425;SDS011;11380;50.822;15.790;2023-02-04T16:33:18;49.07;;;44.03;;
22425;SDS011;11380;50.822;15.790;2023-02-04T16:43:31;48.50;;;43.83;;
22425;SDS011;11380;50.822;15.790;2023-02-04T16:48:39;49.10;;;43.83;;
22425;SDS011;11380;50.822;15.790;2023-02-04T16:53:48;44.20;;;41.10;;
22425;SDS011;11380;50.822;15.790;2023-02-04T16:58:56;45.37;;;41.73;;
22425;SDS011;11380;50.822;15.790;2023-02-04T17:04:03;43.27;;;40.37;;
22425;SDS011;11380;50.822;15.790;2023-02-04T17:09:11;44.47;;;41.27;;
22425;SDS011;11380;50.822;15.790;2023-02-04T17:14:18;42.63;;;39.73;;
22425;SDS011;11380;50.822;15.790;2023-02-04T17:19:27;43.70;;;40.55;;
22425;SDS011;11380;50.822;15.790;2023-02-04T17:24:34;43.30;;;40.30;;
22425;SDS011;11380;50.822;15.790;2023-02-04T17:29:43;45.33;;;41.50;;
22425;SDS011;11380;50.822;15.790;2023-02-04T17:34:50;41.13;;;38.53;;
22425;SDS011;11380;50.822;15.790;2023-02-04T17:39:58;43.07;;;40.23;;
22425;SDS011;11380;50.822;15.790;2023-02-04T17:45:05;43.13;;;39.88;;
22425;SDS011;11380;50.822;15.790;2023-02-04T17:50:15;43.47;;;40.47;;
22425;SDS011;11380;50.822;15.790;2023-02-04T17:55:26;44.42;;;40.98;;
22425;SDS011;11380;50.822;15.790;2023-02-04T18:00:35;42.20;;;39.40;;
22425;SDS011;11380;50.822;15.790;2023-02-04T18:05:46;42.70;;;39.70;;
22425;SDS011;11380;50.822;15.790;2023-02-04T18:10:59;44.33;;;41.10;;
22425;SDS011;11380;50.822;15.790;2023-02-04T18:21:38;42.33;;;39.53;;
22425;SDS011;11380;50.822;15.790;2023-02-04T18:26:50;42.57;;;39.57;;
22425;SDS011;11380;50.822;15.790;2023-02-04T18:42:41;42.87;;;39.97;;
22425;SDS011;11380;50.822;15.790;2023-02-04T18:47:53;44.83;;;41.53;;
22425;SDS011;11380;50.822;15.790;2023-02-04T18:58:28;44.67;;;41.37;;
22425;SDS011;11380;50.822;15.790;2023-02-04T19:14:35;42.90;;;40.00;;
22425;SDS011;11380;50.822;15.790;2023-02-04T19:19:53;44.03;;;40.57;;
22425;SDS011;11380;50.822;15.790;2023-02-04T19:30:46;40.33;;;37.83;;
22425;SDS011;11380;50.822;15.790;2023-02-04T19:35:55;41.80;;;38.90;;
22425;SDS011;11380;50.822;15.790;2023-02-04T19:41:24;42.80;;;39.63;;
22425;SDS011;11380;50.822;15.790;2023-02-04T19:46:49;41.40;;;38.70;;
22425;SDS011;11380;50.822;15.790;2023-02-04T19:51:57;41.43;;;38.47;;
22425;SDS011;11380;50.822;15.790;2023-02-04T19:57:16;41.70;;;38.57;;
22425;SDS011;11380;50.822;15.790;2023-02-04T20:02:32;41.47;;;38.77;;
22425;SDS011;11380;50.822;15.790;2023-02-04T20:07:45;39.93;;;37.33;;
22425;SDS011;11380;50.822;15.790;2023-02-04T20:12:59;40.37;;;37.87;;
22425;SDS011;11380;50.822;15.790;2023-02-04T20:18:19;41.33;;;38.67;;
22425;SDS011;11380;50.822;15.790;2023-02-04T20:23:27;41.77;;;39.07;;
22425;SDS011;11380;50.822;15.790;2023-02-04T20:28:37;42.03;;;38.77;;
22425;SDS011;11380;50.822;15.790;2023-02-04T20:33:55;41.87;;;38.97;;
22425;SDS011;11380;50.822;15.790;2023-02-04T20:44:40;42.33;;;39.43;;
22425;SDS011;11380;50.822;15.790;2023-02-04T20:49:52;41.67;;;38.87;;
22425;SDS011;11380;50.822;15.790;2023-02-04T20:55:11;41.10;;;38.50;;
22425;SDS011;11380;50.822;15.790;2023-02-04T21:00:35;40.35;;;37.65;;
22425;SDS011;11380;50.822;15.790;2023-02-04T21:05:46;42.40;;;39.30;;
22425;SDS011;11380;50.822;15.790;2023-02-04T21:10:56;40.67;;;37.67;;
22425;SDS011;11380;50.822;15.790;2023-02-04T21:16:06;40.37;;;37.77;;
22425;SDS011;11380;50.822;15.790;2023-02-04T21:21:18;38.70;;;36.30;;
22425;SDS011;11380;50.822;15.790;2023-02-04T21:26:29;39.83;;;37.35;;
22425;SDS011;11380;50.822;15.790;2023-02-04T21:31:37;39.30;;;36.93;;
22425;SDS011;11380;50.822;15.790;2023-02-04T21:36:45;39.30;;;36.70;;
22425;SDS011;11380;50.822;15.790;2023-02-04T21:41:53;40.73;;;38.13;;
22425;SDS011;11380;50.822;15.790;2023-02-04T21:47:02;40.70;;;37.60;;
22425;SDS011;11380;50.822;15.790;2023-02-04T21:52:10;39.73;;;37.27;;
22425;SDS011;11380;50.822;15.790;2023-02-04T21:57:19;40.12;;;37.45;;
22425;SDS011;11380;50.822;15.790;2023-02-04T22:02:27;38.97;;;36.47;;
22425;SDS011;11380;50.822;15.790;2023-02-04T22:07:35;38.80;;;36.50;;
22425;SDS011;11380;50.822;15.790;2023-02-04T22:12:43;38.67;;;36.17;;
22425;SDS011;11380;50.822;15.790;2023-02-04T22:17:51;38.33;;;36.03;;
22425;SDS011;11380;50.822;15.790;2023-02-04T22:23:00;39.13;;;36.67;;
22425;SDS011;11380;50.822;15.790;2023-02-04T22:28:08;38.67;;;36.27;;
22425;SDS011;11380;50.822;15.790;2023-02-04T22:33:17;39.07;;;36.37;;
22425;SDS011;11380;50.822;15.790;2023-02-04T22:38:25;38.70;;;36.33;;
22425;SDS011;11380;50.822;15.790;2023-02-04T22:43:33;39.00;;;36.40;;
22425;SDS011;11380;50.822;15.790;2023-02-04T22:48:40;39.13;;;36.73;;
22425;SDS011;11380;50.822;15.790;2023-02-04T22:53:47;39.40;;;36.75;;
22425;SDS011;11380;50.822;15.790;2023-02-04T22:58:54;40.27;;;37.77;;
22425;SDS011;11380;50.822;15.790;2023-02-04T23:04:02;40.57;;;37.47;;
22425;SDS011;11380;50.822;15.790;2023-02-04T23:09:10;40.50;;;37.60;;
22425;SDS011;11380;50.822;15.790;2023-02-04T23:14:17;40.50;;;37.70;;
22425;SDS011;11380;50.822;15.790;2023-02-04T23:24:30;39.08;;;36.48;;
22425;SDS011;11380;50.822;15.790;2023-02-04T23:29:38;38.80;;;36.10;;
22425;SDS011;11380;50.822;15.790;2023-02-04T23:34:45;39.53;;;36.93;;
22425;SDS011;11380;50.822;15.790;2023-02-04T23:39:53;36.90;;;34.70;;
22425;SDS011;11380;50.822;15.790;2023-02-04T23:45:00;37.40;;;35.20;;
22425;SDS011;11380;50.822;15.790;2023-02-04T23:50:08;36.17;;;33.57;;
22425;SDS011;11380;50.822;15.790;2023-02-04T23:55:18;35.83;;;33.65;;
